This is the latest recevied weather packets stored in our database for station/object PY1LEO-13. If no packets are shown the sender has not sent any weather packets the latest 10 day(s).
| Time | Temp. | Humidity | Pressure | Rain* | Wind** | Luminosity | Snow |
|---|---|---|---|---|---|---|---|
| 1777635662 | 27.22° C | 72% | 1020.6 hPa | - | - | - | - |
| 1777635361 | 27.78° C | 69% | 1020.5 hPa | - | - | - | - |
| 1777635062 | 27.78° C | 70% | 1020.4 hPa | - | - | - | - |
| 1777634761 | 26.11° C | 75% | 1020.3 hPa | - | - | - | - |
| 1777634461 | 25° C | 81% | 1020.2 hPa | - | - | - | - |
| 1777634161 | 25.56° C | 80% | 1020.1 hPa | - | - | - | - |
| 1777633862 | 25.56° C | 80% | 1020.1 hPa | - | - | - | - |
| 1777633561 | 25.56° C | 78% | 1020 hPa | - | - | - | - |
| 1777633261 | 25.56° C | 78% | 1019.9 hPa | - | - | - | - |
| 1777632961 | 25.56° C | 78% | 1019.9 hPa | - | - | - | - |
| 1777632661 | 25.56° C | 80% | 1019.8 hPa | - | - | - | - |
| 1777632361 | 26.11° C | 74% | 1019.8 hPa | - | - | - | - |
| 1777632062 | 27.22° C | 69% | 1019.8 hPa | - | - | - | - |
| 1777631761 | 27.78° C | 64% | 1019.7 hPa | - | - | - | - |
| 1777631461 | 27.78° C | 64% | 1019.7 hPa | - | - | - | - |
| 1777631161 | 27.78° C | 64% | 1019.6 hPa | - | - | - | - |
| 1777630861 | 27.78° C | 64% | 1019.5 hPa | - | - | - | - |
| 1777630561 | 27.78° C | 63% | 1019.4 hPa | - | - | - | - |
| 1777630262 | 27.78° C | 62% | 1019.3 hPa | - | - | - | - |
| 1777629961 | 27.22° C | 63% | 1019.3 hPa | - | - | - | - |
| 1777629661 | 27.22° C | 64% | 1019.3 hPa | - | - | - | - |
| 1777629361 | 27.22° C | 66% | 1019.3 hPa | - | - | - | - |
| 1777629061 | 27.22° C | 63% | 1019.3 hPa | - | - | - | - |
| 1777628761 | 27.78° C | 62% | 1019.2 hPa | - | - | - | - |
| 1777628462 | 27.78° C | 62% | 1019.2 hPa | - | - | - | - |
* Rain since midnight (hover to see other rain measurements)
** Current wind speed in m/s (hover to see current wind gust speed)